| time (UTC) | temp F | wind direction | speed MPH | gust MPH | rain 1hr in | rain 24hr in | rain mn in | humidity % | barometer mb |
| 20260510230339 | 70 | 230 | 0.0 | 1.0 | 0.00 | 0.00 | 0.00 | 67 | 1016.9 |
| 20260510225839 | 71 | 25 | 0.0 | 1.0 | 0.00 | 0.00 | 0.00 | 69 | 1016.9 |
| 20260510225340 | 71 | 77 | 2.0 | 2.0 | 0.00 | 0.00 | 0.00 | 66 | 1016.9 |
| 20260510224840 | 71 | 235 | 0.0 | 3.0 | 0.00 | 0.00 | 0.00 | 66 | 1016.9 |
| 20260510224339 | 71 | 60 | 1.0 | 1.0 | 0.00 | 0.00 | 0.00 | 67 | 1016.9 |
| 20260510223839 | 71 | 82 | 1.0 | 2.0 | 0.00 | 0.00 | 0.00 | 67 | 1016.9 |
| 20260510223340 | 71 | 209 | 0.0 | 2.0 | 0.00 | 0.00 | 0.00 | 64 | 1016.9 |
| 20260510222839 | 72 | 97 | 1.0 | 2.0 | 0.00 | 0.00 | 0.00 | 63 | 1016.9 |
| 20260510222340 | 72 | 227 | 2.0 | 3.0 | 0.00 | 0.00 | 0.00 | 62 | 1017.3 |
| 20260510221839 | 73 | 238 | 1.0 | 3.0 | 0.00 | 0.00 | 0.00 | 61 | 1016.9 |
| 20260510221340 | 73 | 228 | 2.0 | 3.0 | 0.00 | 0.00 | 0.00 | 62 | 1016.9 |
| 20260510220840 | 73 | 135 | 0.0 | 0.0 | 0.00 | 0.00 | 0.00 | 63 | 1017.3 |
| 20260510220340 | 73 | 25 | 0.0 | 2.0 | 0.00 | 0.00 | 0.00 | 63 | 1017.3 |
| 20260510215839 | 73 | 205 | 0.0 | 0.0 | 0.00 | 0.00 | 0.00 | 60 | 1017.3 |
| 20260510215339 | 73 | 89 | 0.0 | 1.0 | 0.00 | 0.00 | 0.00 | 59 | 1017.3 |
| 20260510214839 | 74 | 242 | 3.0 | 3.0 | 0.00 | 0.00 | 0.00 | 60 | 1017.3 |
| 20260510214340 | 74 | 247 | 1.0 | 3.0 | 0.00 | 0.00 | 0.00 | 61 | 1017.3 |
| 20260510213839 | 73 | 143 | 1.0 | 2.0 | 0.00 | 0.00 | 0.00 | 59 | 1017.3 |
| 20260510213339 | 74 | 239 | 3.0 | 4.0 | 0.00 | 0.00 | 0.00 | 59 | 1016.9 |
| 20260510212839 | 75 | 266 | 0.0 | 3.0 | 0.00 | 0.00 | 0.00 | 58 | 1016.9 |
| 20260510212339 | 75 | 233 | 4.0 | 5.0 | 0.00 | 0.00 | 0.00 | 53 | 1016.6 |
| 20260510211840 | 75 | 252 | 2.0 | 5.0 | 0.00 | 0.00 | 0.00 | 53 | 1016.6 |
| 20260510211339 | 75 | 239 | 4.0 | 5.0 | 0.00 | 0.00 | 0.00 | 55 | 1016.6 |
| 20260510210839 | 76 | 264 | 1.0 | 2.0 | 0.00 | 0.00 | 0.00 | 53 | 1016.6 |
| 20260510210340 | 77 | 285 | 1.0 | 3.0 | 0.00 | 0.00 | 0.00 | 48 | 1016.9 |
| 20260510205840 | 77 | 246 | 6.0 | 8.0 | 0.00 | 0.00 | 0.00 | 43 | 1016.9 |
| 20260510205339 | 78 | 233 | 7.0 | 7.0 | 0.00 | 0.00 | 0.00 | 42 | 1016.6 |
| 20260510204839 | 78 | 238 | 5.0 | 6.0 | 0.00 | 0.00 | 0.00 | 49 | 1016.9 |
| 20260510204339 | 78 | 261 | 4.0 | 6.0 | 0.00 | 0.00 | 0.00 | 43 | 1016.6 |
| 20260510203839 | 77 | 238 | 4.0 | 5.0 | 0.00 | 0.00 | 0.00 | 52 | 1016.6 |
| 20260510203339 | 77 | 309 | 2.0 | 6.0 | 0.00 | 0.00 | 0.00 | 44 | 1016.9 |
| 20260510202840 | 76 | 262 | 3.0 | 6.0 | 0.00 | 0.00 | 0.00 | 54 | 1016.9 |
| 20260510202339 | 77 | 235 | 5.0 | 8.0 | 0.00 | 0.00 | 0.00 | 45 | 1016.9 |
| 20260510201840 | 78 | 252 | 3.0 | 3.0 | 0.00 | 0.00 | 0.00 | 46 | 1016.9 |
| 20260510201339 | 78 | 272 | 2.0 | 6.0 | 0.00 | 0.00 | 0.00 | 44 | 1016.9 |
| 20260510200839 | 76 | 320 | 3.0 | 3.0 | 0.00 | 0.00 | 0.00 | 45 | 1017.3 |
| 20260510200339 | 75 | 235 | 5.0 | 5.0 | 0.00 | 0.00 | 0.00 | 52 | 1017.3 |
| 20260510195839 | 77 | 236 | 5.0 | 7.0 | 0.00 | 0.00 | 0.00 | 46 | 1017.3 |
| 20260510195339 | 78 | 242 | 7.0 | 9.0 | 0.00 | 0.00 | 0.00 | 46 | 1017.3 |
| 20260510194839 | 78 | 249 | 3.0 | 4.0 | 0.00 | 0.00 | 0.00 | 43 | 1017.6 |
| 20260510194339 | 78 | 279 | 2.0 | 4.0 | 0.00 | 0.00 | 0.00 | 43 | 1017.6 |
| 20260510193839 | 78 | 248 | 1.0 | 6.0 | 0.00 | 0.00 | 0.00 | 43 | 1017.6 |
| 20260510193339 | 76 | 238 | 6.0 | 9.0 | 0.00 | 0.00 | 0.00 | 42 | 1017.9 |
| 20260510192840 | 76 | 141 | 3.0 | 3.0 | 0.00 | 0.00 | 0.00 | 47 | 1017.9 |
| 20260510192339 | 77 | 271 | 0.0 | 2.0 | 0.00 | 0.00 | 0.00 | 48 | 1017.9 |
| 20260510191841 | 77 | 243 | 1.0 | 5.0 | 0.00 | 0.00 | 0.00 | 52 | 1017.9 |
| 20260510191339 | 78 | 240 | 7.0 | 9.0 | 0.00 | 0.00 | 0.00 | 46 | 1017.3 |
| 20260510190839 | 78 | 146 | 1.0 | 5.0 | 0.00 | 0.00 | 0.00 | 49 | 1017.6 |
| 20260510190339 | 79 | 284 | 0.0 | 2.0 | 0.00 | 0.00 | 0.00 | 43 | 1017.9 |
| 20260510185839 | 78 | 294 | 0.0 | 4.0 | 0.00 | 0.00 | 0.00 | 43 | 1017.6 |
| 20260510185339 | 78 | 171 | 1.0 | 3.0 | 0.00 | 0.00 | 0.00 | 40 | 1017.9 |
| 20260510184839 | 79 | 241 | 7.0 | 7.0 | 0.00 | 0.00 | 0.00 | 42 | 1017.9 |
| 20260510184339 | 78 | 247 | 8.0 | 9.0 | 0.00 | 0.00 | 0.00 | 44 | 1017.9 |
| 20260510183839 | 77 | 238 | 3.0 | 7.0 | 0.00 | 0.00 | 0.00 | 46 | 1017.9 |
| 20260510183339 | 77 | 97 | 1.0 | 6.0 | 0.00 | 0.00 | 0.00 | 45 | 1017.9 |
| 20260510182839 | 77 | 240 | 0.0 | 4.0 | 0.00 | 0.00 | 0.00 | 41 | 1017.9 |
| 20260510182339 | 78 | 229 | 1.0 | 7.0 | 0.00 | 0.00 | 0.00 | 40 | 1017.9 |
| 20260510181839 | 79 | 239 | 3.0 | 8.0 | 0.00 | 0.00 | 0.00 | 42 | 1017.9 |
| 20260510181341 | 79 | 224 | 1.0 | 11.0 | 0.00 | 0.00 | 0.00 | 42 | 1017.6 |
| 20260510180839 | 78 | 216 | 2.0 | 6.0 | 0.00 | 0.00 | 0.00 | 42 | 1017.9 |
| 20260510180339 | 78 | 223 | 5.0 | 9.0 | 0.00 | 0.00 | 0.00 | 43 | 1017.9 |
| 20260510175840 | 78 | 157 | 1.0 | 2.0 | 0.00 | 0.00 | 0.00 | 44 | 1017.9 |
| 20260510175339 | 80 | 275 | 4.0 | 5.0 | 0.00 | 0.00 | 0.00 | 41 | 1017.9 |
| 20260510174840 | 80 | 252 | 8.0 | 9.0 | 0.00 | 0.00 | 0.00 | 41 | 1017.9 |
| 20260510174339 | 80 | 236 | 3.0 | 5.0 | 0.00 | 0.00 | 0.00 | 43 | 1017.9 |
| 20260510173839 | 80 | 264 | 3.0 | 3.0 | 0.00 | 0.00 | 0.00 | 42 | 1017.9 |
| 20260510173339 | 80 | 310 | 3.0 | 9.0 | 0.00 | 0.00 | 0.00 | 41 | 1017.9 |
| 20260510172839 | 80 | 154 | 0.0 | 5.0 | 0.00 | 0.00 | 0.00 | 41 | 1017.9 |
| 20260510172339 | 79 | 246 | 5.0 | 8.0 | 0.00 | 0.00 | 0.00 | 43 | 1018.3 |
| 20260510171840 | 78 | 276 | 4.0 | 10.0 | 0.00 | 0.00 | 0.00 | 46 | 1017.9 |
| 20260510171339 | 78 | 254 | 5.0 | 5.0 | 0.00 | 0.00 | 0.00 | 44 | 1018.3 |
| 20260510170839 | 77 | 233 | 5.0 | 5.0 | 0.00 | 0.00 | 0.00 | 47 | 1018.3 |
| 20260510170339 | 78 | 132 | 1.0 | 7.0 | 0.00 | 0.00 | 0.00 | 43 | 1018.3 |
| 20260510165840 | 78 | 256 | 3.0 | 5.0 | 0.00 | 0.00 | 0.00 | 46 | 1018.3 |
| 20260510165340 | 77 | 227 | 3.0 | 5.0 | 0.00 | 0.00 | 0.00 | 48 | 1018.6 |
| 20260510164839 | 77 | 240 | 5.0 | 7.0 | 0.00 | 0.00 | 0.00 | 45 | 1018.6 |
| 20260510164340 | 77 | 251 | 2.0 | 3.0 | 0.00 | 0.00 | 0.00 | 47 | 1018.6 |
| 20260510163839 | 77 | 213 | 1.0 | 3.0 | 0.00 | 0.00 | 0.00 | 48 | 1018.6 |
| 20260510163339 | 77 | 187 | 1.0 | 5.0 | 0.00 | 0.00 | 0.00 | 46 | 1018.6 |
| 20260510162839 | 76 | 196 | 2.0 | 3.0 | 0.00 | 0.00 | 0.00 | 45 | 1018.6 |
| 20260510162339 | 75 | 216 | 5.0 | 9.0 | 0.00 | 0.00 | 0.00 | 48 | 1019.0 |
| 20260510161839 | 75 | 174 | 1.0 | 3.0 | 0.00 | 0.00 | 0.00 | 47 | 1019.0 |
| 20260510161339 | 75 | 236 | 5.0 | 6.0 | 0.00 | 0.00 | 0.00 | 51 | 1019.0 |
| 20260510160839 | 74 | 204 | 1.0 | 5.0 | 0.00 | 0.00 | 0.00 | 52 | 1019.3 |
| 20260510160340 | 74 | 122 | 0.0 | 3.0 | 0.00 | 0.00 | 0.00 | 47 | 1019.0 |
| 20260510155839 | 74 | 214 | 4.0 | 5.0 | 0.00 | 0.00 | 0.00 | 53 | 1019.3 |
| 20260510155339 | 74 | 194 | 0.0 | 6.0 | 0.00 | 0.00 | 0.00 | 51 | 1019.3 |
| 20260510154840 | 73 | 238 | 3.0 | 3.0 | 0.00 | 0.00 | 0.00 | 52 | 1019.3 |
| 20260510154339 | 73 | 245 | 4.0 | 4.0 | 0.00 | 0.00 | 0.00 | 54 | 1019.3 |
| 20260510153839 | 72 | 243 | 3.0 | 5.0 | 0.00 | 0.00 | 0.00 | 55 | 1019.3 |
| 20260510153339 | 71 | 170 | 1.0 | 3.0 | 0.00 | 0.00 | 0.00 | 59 | 1019.3 |
| 20260510152839 | 71 | 148 | 1.0 | 3.0 | 0.00 | 0.00 | 0.00 | 57 | 1019.3 |
| 20260510151851 | 70 | 245 | 3.0 | 4.0 | 0.00 | 0.00 | 0.00 | 60 | 1019.3 |
| 20260510151339 | 70 | 159 | 1.0 | 6.0 | 0.00 | 0.00 | 0.00 | 60 | 1019.3 |
| 20260510150839 | 69 | 116 | 1.0 | 3.0 | 0.00 | 0.00 | 0.00 | 63 | 1019.3 |
| 20260510150340 | 68 | 221 | 0.0 | 3.0 | 0.00 | 0.00 | 0.00 | 63 | 1019.6 |
| 20260510145840 | 68 | 241 | 2.0 | 4.0 | 0.00 | 0.00 | 0.00 | 68 | 1019.3 |
| 20260510145340 | 67 | 118 | 2.0 | 4.0 | 0.00 | 0.00 | 0.00 | 70 | 1019.3 |
| 20260510144840 | 67 | 8 | 0.0 | 6.0 | 0.00 | 0.00 | 0.00 | 70 | 1019.6 |
| 20260510144339 | 66 | 234 | 2.0 | 6.0 | 0.00 | 0.00 | 0.00 | 72 | 1019.3 |
| 20260510143839 | 65 | 158 | 2.0 | 4.0 | 0.00 | 0.00 | 0.00 | 70 | 1019.3 |
| 20260510143340 | 65 | 196 | 2.0 | 3.0 | 0.00 | 0.00 | 0.00 | 70 | 1019.3 |
| 20260510142839 | 64 | 214 | 1.0 | 3.0 | 0.00 | 0.00 | 0.00 | 70 | 1019.3 |
| 20260510142340 | 63 | 192 | 1.0 | 3.0 | 0.00 | 0.00 | 0.00 | 73 | 1019.6 |
| 20260510141839 | 62 | 112 | 2.0 | 3.0 | 0.00 | 0.00 | 0.00 | 77 | 1019.3 |
| 20260510141339 | 61 | 160 | 2.0 | 3.0 | 0.00 | 0.00 | 0.00 | 82 | 1019.3 |
| 20260510140839 | 59 | 199 | 1.0 | 4.0 | 0.00 | 0.00 | 0.00 | 91 | 1019.3 |
| 20260510140340 | 58 | 92 | 2.0 | 3.0 | 0.00 | 0.00 | 0.00 | 96 | 1019.3 |
| 20260510135839 | 57 | 182 | 1.0 | 2.0 | 0.00 | 0.00 | 0.00 | 98 | 1019.3 |
| 20260510135340 | 56 | 153 | 2.0 | 4.0 | 0.00 | 0.00 | 0.00 | 98 | 1019.3 |
| 20260510134840 | 56 | 268 | 0.0 | 3.0 | 0.00 | 0.00 | 0.00 | 98 | 1019.3 |
| 20260510134339 | 56 | 180 | 0.0 | 3.0 | 0.00 | 0.00 | 0.00 | 98 | 1019.3 |
| 20260510133840 | 55 | 227 | 2.0 | 3.0 | 0.00 | 0.00 | 0.00 | 97 | 1019.3 |
| 20260510133339 | 55 | 106 | 0.0 | 3.0 | 0.00 | 0.00 | 0.00 | 98 | 1019.3 |
| 20260510132840 | 55 | 15 | 0.0 | 3.0 | 0.00 | 0.00 | 0.00 | 97 | 1019.0 |
| 20260510132339 | 54 | 158 | 1.0 | 2.0 | 0.00 | 0.00 | 0.00 | 98 | 1019.3 |
| 20260510131840 | 53 | 89 | 0.0 | 3.0 | 0.00 | 0.00 | 0.00 | 97 | 1019.6 |
| 20260510131340 | 53 | 196 | 2.0 | 3.0 | 0.00 | 0.00 | 0.00 | 97 | 1019.3 |
| 20260510130840 | 52 | 211 | 0.0 | 3.0 | 0.00 | 0.00 | 0.00 | 97 | 1019.3 |
| 20260510130339 | 51 | 44 | 1.0 | 2.0 | 0.00 | 0.00 | 0.00 | 97 | 1019.3 |
| 20260510125840 | 51 | 233 | 1.0 | 2.0 | 0.00 | 0.00 | 0.00 | 97 | 1019.3 |
| 20260510125339 | 50 | 149 | 2.0 | 3.0 | 0.00 | 0.00 | 0.00 | 97 | 1019.6 |
| 20260510124839 | 50 | 234 | 2.0 | 3.0 | 0.00 | 0.00 | 0.00 | 98 | 1019.3 |
| 20260510124339 | 49 | 91 | 1.0 | 3.0 | 0.00 | 0.00 | 0.00 | 98 | 1019.6 |
| 20260510123839 | 49 | 282 | 2.0 | 4.0 | 0.00 | 0.00 | 0.00 | 98 | 1019.6 |
| 20260510123339 | 48 | 152 | 0.0 | 3.0 | 0.00 | 0.00 | 0.00 | 98 | 1019.6 |
| 20260510122839 | 48 | 153 | 1.0 | 3.0 | 0.00 | 0.00 | 0.00 | 98 | 1019.6 |
| 20260510122340 | 47 | 206 | 0.0 | 3.0 | 0.00 | 0.00 | 0.00 | 98 | 1019.6 |
| 20260510121840 | 47 | 116 | 2.0 | 3.0 | 0.00 | 0.00 | 0.00 | 98 | 1019.6 |
| 20260510121339 | 47 | 112 | 1.0 | 3.0 | 0.00 | 0.00 | 0.00 | 98 | 1019.3 |
| 20260510120839 | 46 | 237 | 0.0 | 2.0 | 0.00 | 0.00 | 0.00 | 98 | 1019.3 |
| 20260510120339 | 46 | 84 | 0.0 | 3.0 | 0.00 | 0.00 | 0.00 | 98 | 1019.3 |
| 20260510115840 | 46 | 214 | 0.0 | 3.0 | 0.00 | 0.00 | 0.00 | 98 | 1019.0 |
| 20260510115343 | 46 | 280 | 0.0 | 2.0 | 0.00 | 0.00 | 0.00 | 98 | 1019.3 |
| 20260510114840 | 46 | 195 | 1.0 | 3.0 | 0.00 | 0.00 | 0.00 | 98 | 1019.3 |
| 20260510114340 | 46 | 233 | 0.0 | 3.0 | 0.00 | 0.00 | 0.00 | 98 | 1019.3 |
| 20260510113840 | 46 | 178 | 2.0 | 3.0 | 0.00 | 0.00 | 0.00 | 98 | 1019.3 |
| 20260510113339 | 46 | 123 | 1.0 | 3.0 | 0.00 | 0.00 | 0.00 | 98 | 1018.6 |
| 20260510112839 | 46 | 157 | 0.0 | 2.0 | 0.00 | 0.00 | 0.00 | 98 | 1019.0 |
| 20260510112339 | 46 | 68 | 1.0 | 3.0 | 0.00 | 0.00 | 0.00 | 98 | 1019.0 |
| 20260510111839 | 46 | 189 | 0.0 | 4.0 | 0.00 | 0.00 | 0.00 | 98 | 1018.6 |
| 20260510111339 | 45 | 111 | 2.0 | 3.0 | 0.00 | 0.00 | 0.00 | 98 | 1018.6 |
| 20260510110839 | 45 | 53 | 0.0 | 3.0 | 0.00 | 0.00 | 0.00 | 98 | 1018.3 |
| 20260510110339 | 45 | 155 | 2.0 | 3.0 | 0.00 | 0.00 | 0.00 | 98 | 1018.3 |
| 20260510105839 | 45 | 168 | 0.0 | 3.0 | 0.00 | 0.00 | 0.00 | 98 | 1018.3 |
| 20260510105339 | 45 | 238 | 0.0 | 3.0 | 0.00 | 0.00 | 0.00 | 98 | 1018.3 |
| 20260510104840 | 45 | 191 | 1.0 | 4.0 | 0.00 | 0.00 | 0.00 | 98 | 1018.3 |
| 20260510104340 | 45 | 74 | 1.0 | 3.0 | 0.00 | 0.00 | 0.00 | 98 | 1017.9 |
| 20260510103839 | 45 | 88 | 1.0 | 3.0 | 0.00 | 0.00 | 0.00 | 98 | 1017.9 |
| 20260510103339 | 45 | 129 | 3.0 | 3.0 | 0.00 | 0.00 | 0.00 | 98 | 1018.3 |
| 20260510102840 | 45 | 163 | 2.0 | 4.0 | 0.00 | 0.00 | 0.00 | 98 | 1018.3 |
| 20260510102339 | 45 | 19 | 1.0 | 3.0 | 0.00 | 0.00 | 0.00 | 98 | 1017.9 |
| 20260510101839 | 45 | 348 | 2.0 | 3.0 | 0.00 | 0.00 | 0.00 | 98 | 1017.9 |
| 20260510101339 | 45 | 50 | 2.0 | 4.0 | 0.00 | 0.00 | 0.00 | 98 | 1017.9 |
| 20260510100839 | 45 | 268 | 1.0 | 3.0 | 0.00 | 0.00 | 0.00 | 98 | 1017.6 |
| 20260510100339 | 45 | 77 | 2.0 | 2.0 | 0.00 | 0.00 | 0.00 | 98 | 1017.6 |
| 20260510095839 | 45 | 246 | 2.0 | 5.0 | 0.00 | 0.00 | 0.00 | 98 | 1017.3 |
| 20260510095339 | 45 | 160 | 1.0 | 3.0 | 0.00 | 0.00 | 0.00 | 98 | 1017.3 |
| 20260510094839 | 45 | 308 | 2.0 | 4.0 | 0.00 | 0.00 | 0.00 | 98 | 1017.3 |
| 20260510094339 | 45 | 203 | 2.0 | 4.0 | 0.00 | 0.00 | 0.00 | 98 | 1017.3 |
| 20260510093839 | 45 | 160 | 3.0 | 4.0 | 0.00 | 0.00 | 0.00 | 98 | 1017.3 |
| 20260510093340 | 45 | 279 | 0.0 | 3.0 | 0.00 | 0.00 | 0.00 | 98 | 1016.9 |
| 20260510092839 | 46 | 125 | 0.0 | 3.0 | 0.00 | 0.00 | 0.00 | 98 | 1016.9 |
| 20260510092340 | 46 | 354 | 1.0 | 4.0 | 0.00 | 0.00 | 0.00 | 98 | 1017.3 |
| 20260510091839 | 46 | 265 | 2.0 | 4.0 | 0.00 | 0.00 | 0.00 | 98 | 1016.9 |
| 20260510091339 | 46 | 211 | 0.0 | 3.0 | 0.00 | 0.00 | 0.00 | 98 | 1016.9 |
| 20260510090840 | 46 | 173 | 2.0 | 3.0 | 0.00 | 0.00 | 0.00 | 98 | 1016.6 |
| 20260510090339 | 46 | 236 | 0.0 | 4.0 | 0.00 | 0.00 | 0.00 | 98 | 1016.9 |
| 20260510085839 | 46 | 215 | 3.0 | 4.0 | 0.00 | 0.00 | 0.00 | 98 | 1016.6 |
| 20260510085339 | 46 | 78 | 2.0 | 3.0 | 0.00 | 0.00 | 0.00 | 98 | 1016.9 |
| 20260510084839 | 46 | 178 | 2.0 | 4.0 | 0.00 | 0.00 | 0.00 | 98 | 1016.6 |
| 20260510084343 | 46 | 99 | 2.0 | 4.0 | 0.00 | 0.00 | 0.00 | 97 | 1016.6 |
| 20260510083840 | 46 | 249 | 2.0 | 4.0 | 0.00 | 0.00 | 0.00 | 97 | 1016.6 |
| 20260510083339 | 46 | 255 | 0.0 | 5.0 | 0.00 | 0.00 | 0.00 | 98 | 1016.3 |
| 20260510082840 | 46 | 171 | 2.0 | 3.0 | 0.00 | 0.00 | 0.00 | 97 | 1016.6 |
| 20260510082339 | 46 | 87 | 0.0 | 3.0 | 0.00 | 0.00 | 0.00 | 97 | 1016.6 |
| 20260510081839 | 46 | 162 | 3.0 | 3.0 | 0.00 | 0.00 | 0.00 | 97 | 1016.6 |
| 20260510081339 | 46 | 160 | 3.0 | 5.0 | 0.00 | 0.00 | 0.00 | 97 | 1016.3 |
| 20260510080839 | 46 | 123 | 3.0 | 4.0 | 0.00 | 0.00 | 0.00 | 97 | 1016.3 |
| 20260510080341 | 46 | 189 | 0.0 | 3.0 | 0.00 | 0.00 | 0.00 | 97 | 1015.9 |
| 20260510075839 | 46 | 151 | 3.0 | 4.0 | 0.00 | 0.00 | 0.00 | 97 | 1016.3 |
| 20260510075341 | 46 | 14 | 0.0 | 5.0 | 0.00 | 0.00 | 0.00 | 97 | 1016.3 |
| 20260510074840 | 46 | 52 | 4.0 | 5.0 | 0.00 | 0.00 | 0.00 | 97 | 1016.3 |
| 20260510074340 | 47 | 157 | 1.0 | 5.0 | 0.00 | 0.00 | 0.00 | 97 | 1015.9 |
| 20260510073839 | 47 | 343 | 0.0 | 5.0 | 0.00 | 0.00 | 0.00 | 97 | 1016.3 |
| 20260510073339 | 47 | 80 | 0.0 | 3.0 | 0.00 | 0.00 | 0.00 | 97 | 1015.9 |
| 20260510072839 | 47 | 189 | 3.0 | 4.0 | 0.00 | 0.00 | 0.00 | 97 | 1015.9 |
| 20260510072340 | 47 | 240 | 0.0 | 4.0 | 0.00 | 0.00 | 0.00 | 97 | 1016.3 |
| 20260510071839 | 47 | 257 | 0.0 | 5.0 | 0.00 | 0.00 | 0.00 | 97 | 1016.3 |
| 20260510071339 | 47 | 216 | 2.0 | 4.0 | 0.00 | 0.00 | 0.00 | 97 | 1016.3 |
| 20260510070839 | 47 | 181 | 2.0 | 6.0 | 0.00 | 0.00 | 0.00 | 97 | 1015.9 |
| 20260510070340 | 47 | 225 | 1.0 | 3.0 | 0.00 | 0.00 | 0.00 | 97 | 1015.9 |
| 20260510065839 | 47 | 89 | 0.0 | 0.0 | 0.00 | 0.00 | 0.00 | 97 | 1015.9 |
| 20260510065339 | 47 | 57 | 0.0 | 1.0 | 0.00 | 0.00 | 0.00 | 97 | 1015.9 |
| 20260510064839 | 47 | 269 | 0.0 | 1.0 | 0.00 | 0.00 | 0.00 | 97 | 1015.9 |
| 20260510064339 | 47 | 229 | 0.0 | 0.0 | 0.00 | 0.00 | 0.00 | 97 | 1015.6 |
| 20260510063839 | 48 | 62 | 0.0 | 1.0 | 0.00 | 0.00 | 0.00 | 97 | 1015.9 |
| 20260510063339 | 48 | 235 | 0.0 | 0.0 | 0.00 | 0.00 | 0.00 | 97 | 1015.6 |
| 20260510062839 | 48 | 235 | 0.0 | 0.0 | 0.00 | 0.00 | 0.00 | 97 | 1015.9 |
| 20260510062339 | 48 | 55 | 0.0 | 0.0 | 0.00 | 0.00 | 0.00 | 97 | 1015.6 |
| 20260510061839 | 48 | 50 | 0.0 | 0.0 | 0.00 | 0.00 | 0.00 | 97 | 1015.9 |
| 20260510061339 | 48 | 242 | 0.0 | 0.0 | 0.00 | 0.00 | 0.00 | 97 | 1015.9 |
| 20260510060840 | 48 | 62 | 0.0 | 1.0 | 0.00 | 0.00 | 0.00 | 97 | 1015.6 |
| 20260510060339 | 48 | 62 | 0.0 | 0.0 | 0.00 | 0.00 | 0.00 | 97 | 1015.6 |
| 20260510055839 | 48 | 162 | 0.0 | 0.0 | 0.00 | 0.00 | 0.00 | 97 | 1015.6 |
| 20260510055339 | 48 | 224 | 0.0 | 0.0 | 0.00 | 0.00 | 0.00 | 97 | 1015.6 |
| 20260510054839 | 48 | 240 | 0.0 | 1.0 | 0.00 | 0.00 | 0.00 | 97 | 1015.6 |
| 20260510054339 | 48 | 57 | 0.0 | 0.0 | 0.00 | 0.00 | 0.00 | 97 | 1015.6 |
| 20260510053839 | 48 | 142 | 0.0 | 0.0 | 0.00 | 0.00 | 0.00 | 97 | 1015.6 |
| 20260510053339 | 48 | 69 | 0.0 | 1.0 | 0.00 | 0.00 | 0.00 | 97 | 1015.6 |
| 20260510052840 | 49 | 242 | 0.0 | 0.0 | 0.00 | 0.00 | 0.00 | 96 | 1015.6 |
| 20260510052339 | 49 | 102 | 0.0 | 1.0 | 0.00 | 0.00 | 0.00 | 96 | 1015.6 |
| 20260510051839 | 49 | 147 | 0.0 | 1.0 | 0.00 | 0.00 | 0.00 | 96 | 1015.6 |
| 20260510051339 | 49 | 203 | 0.0 | 0.0 | 0.00 | 0.00 | 0.00 | 96 | 1015.6 |
| 20260510050840 | 49 | 296 | 0.0 | 1.0 | 0.00 | 0.00 | 0.00 | 96 | 1015.6 |
| 20260510050340 | 49 | 230 | 0.0 | 0.0 | 0.00 | 0.00 | 0.00 | 96 | 1015.6 |
| 20260510045839 | 49 | 66 | 0.0 | 0.0 | 0.00 | 0.00 | 0.00 | 96 | 1015.6 |
| 20260510045340 | 49 | 309 | 0.0 | 0.0 | 0.00 | 0.00 | 0.00 | 96 | 1015.6 |
| 20260510044839 | 49 | 216 | 0.0 | 2.0 | 0.00 | 0.00 | 0.00 | 96 | 1015.9 |
| 20260510044340 | 49 | 62 | 0.0 | 1.0 | 0.00 | 0.00 | 0.00 | 96 | 1015.6 |
| 20260510043839 | 50 | 86 | 1.0 | 1.0 | 0.00 | 0.00 | 0.00 | 96 | 1015.6 |
| 20260510043340 | 50 | 269 | 0.0 | 0.0 | 0.00 | 0.00 | 0.00 | 96 | 1015.6 |
| 20260510042839 | 49 | 22 | 0.0 | 0.0 | 0.00 | 0.00 | 0.00 | 96 | 1015.6 |
| 20260510042339 | 50 | 315 | 0.0 | 0.0 | 0.00 | 0.00 | 0.00 | 96 | 1015.6 |
| 20260510041839 | 50 | 210 | 0.0 | 1.0 | 0.00 | 0.00 | 0.00 | 96 | 1015.6 |
| 20260510041339 | 50 | 174 | 0.0 | 1.0 | 0.00 | 0.00 | 0.00 | 96 | 1015.6 |
| 20260510040839 | 50 | 50 | 0.0 | 1.0 | 0.00 | 0.00 | 0.00 | 96 | 1015.2 |
| 20260510040339 | 50 | 62 | 0.0 | 0.0 | 0.00 | 0.00 | 0.00 | 96 | 1015.2 |
| 20260510035839 | 50 | 205 | 0.0 | 0.0 | 0.00 | 0.00 | 0.00 | 95 | 1015.2 |
| 20260510035339 | 50 | 205 | 0.0 | 0.0 | 0.00 | 0.00 | 0.00 | 95 | 1015.2 |
| 20260510034839 | 50 | 217 | 0.0 | 1.0 | 0.00 | 0.00 | 0.00 | 95 | 1015.2 |
| 20260510034340 | 50 | 62 | 0.0 | 0.0 | 0.00 | 0.00 | 0.00 | 96 | 1015.2 |
| 20260510033840 | 51 | 63 | 0.0 | 2.0 | 0.00 | 0.00 | 0.00 | 96 | 1015.2 |
| 20260510033340 | 51 | 173 | 0.0 | 0.0 | 0.00 | 0.00 | 0.00 | 95 | 1015.2 |
| 20260510032840 | 51 | 240 | 0.0 | 1.0 | 0.00 | 0.00 | 0.00 | 95 | 1015.2 |
| 20260510032340 | 51 | 185 | 0.0 | 1.0 | 0.00 | 0.00 | 0.00 | 95 | 1014.9 |
| 20260510031840 | 51 | 89 | 0.0 | 1.0 | 0.00 | 0.00 | 0.00 | 95 | 1014.9 |
| 20260510031339 | 51 | 62 | 0.0 | 0.0 | 0.00 | 0.00 | 0.00 | 95 | 1014.9 |
| 20260510030840 | 51 | 154 | 0.0 | 0.0 | 0.00 | 0.00 | 0.00 | 95 | 1014.9 |
| 20260510030339 | 51 | 50 | 0.0 | 0.0 | 0.00 | 0.00 | 0.00 | 95 | 1014.6 |
| 20260510025840 | 52 | 166 | 0.0 | 0.0 | 0.00 | 0.00 | 0.00 | 94 | 1014.9 |
| 20260510025339 | 52 | 69 | 0.0 | 0.0 | 0.00 | 0.00 | 0.00 | 94 | 1014.9 |
| 20260510024839 | 52 | 50 | 0.0 | 1.0 | 0.00 | 0.00 | 0.00 | 95 | 1014.9 |
| 20260510024340 | 52 | 135 | 0.0 | 0.0 | 0.00 | 0.00 | 0.00 | 94 | 1014.6 |
| 20260510023840 | 52 | 202 | 0.0 | 0.0 | 0.00 | 0.00 | 0.00 | 94 | 1014.9 |
| 20260510023340 | 52 | 130 | 0.0 | 1.0 | 0.00 | 0.00 | 0.00 | 94 | 1014.6 |
| 20260510022840 | 53 | 53 | 0.0 | 1.0 | 0.00 | 0.00 | 0.00 | 94 | 1014.6 |
| 20260510022339 | 53 | 56 | 0.0 | 0.0 | 0.00 | 0.00 | 0.00 | 94 | 1014.6 |
| 20260510021839 | 53 | 135 | 0.0 | 0.0 | 0.00 | 0.00 | 0.00 | 94 | 1014.6 |
| 20260510021339 | 53 | 293 | 0.0 | 1.0 | 0.00 | 0.00 | 0.00 | 93 | 1014.6 |
| 20260510020840 | 53 | 142 | 0.0 | 0.0 | 0.00 | 0.00 | 0.00 | 93 | 1014.6 |
| 20260510020339 | 53 | 309 | 0.0 | 0.0 | 0.00 | 0.00 | 0.00 | 93 | 1014.6 |
| 20260510015839 | 54 | 205 | 0.0 | 1.0 | 0.00 | 0.00 | 0.00 | 93 | 1014.6 |
| 20260510015339 | 54 | 135 | 0.0 | 0.0 | 0.00 | 0.00 | 0.00 | 93 | 1014.6 |
| 20260510014839 | 54 | 129 | 0.0 | 1.0 | 0.00 | 0.00 | 0.00 | 93 | 1014.2 |
| 20260510014339 | 54 | 89 | 0.0 | 0.0 | 0.00 | 0.00 | 0.00 | 93 | 1014.2 |
| 20260510013839 | 55 | 44 | 0.0 | 0.0 | 0.00 | 0.00 | 0.00 | 93 | 1013.9 |
| 20260510013339 | 55 | 119 | 0.0 | 0.0 | 0.00 | 0.00 | 0.00 | 92 | 1013.9 |
| 20260510012840 | 55 | 269 | 0.0 | 1.0 | 0.00 | 0.00 | 0.00 | 92 | 1013.9 |
| 20260510012340 | 55 | 95 | 0.0 | 2.0 | 0.00 | 0.00 | 0.00 | 92 | 1013.5 |
| 20260510011842 | 55 | 329 | 0.0 | 0.0 | 0.00 | 0.00 | 0.00 | 91 | 1013.9 |
| 20260510011340 | 56 | 102 | 0.0 | 1.0 | 0.00 | 0.00 | 0.00 | 91 | 1013.5 |
| 20260510010840 | 56 | 343 | 0.0 | 0.0 | 0.00 | 0.00 | 0.00 | 91 | 1013.9 |
| 20260510010339 | 56 | 296 | 0.0 | 2.0 | 0.00 | 0.00 | 0.00 | 91 | 1013.5 |
| 20260510005840 | 56 | 256 | 0.0 | 1.0 | 0.00 | 0.00 | 0.00 | 91 | 1013.5 |
| 20260510005339 | 57 | 117 | 0.0 | 0.0 | 0.00 | 0.00 | 0.00 | 91 | 1013.5 |
| 20260510004839 | 57 | 129 | 0.0 | 0.0 | 0.00 | 0.00 | 0.00 | 90 | 1013.2 |
| 20260510004339 | 57 | 164 | 0.0 | 0.0 | 0.00 | 0.00 | 0.00 | 90 | 1013.2 |
| 20260510003839 | 57 | 224 | 0.0 | 0.0 | 0.00 | 0.00 | 0.00 | 89 | 1013.2 |
| 20260510003339 | 58 | 64 | 1.0 | 1.0 | 0.00 | 0.00 | 0.00 | 90 | 1013.2 |
| 20260510002840 | 58 | 135 | 0.0 | 1.0 | 0.00 | 0.00 | 0.00 | 89 | 1012.9 |
| 20260510002339 | 58 | 214 | 0.0 | 0.0 | 0.00 | 0.00 | 0.00 | 89 | 1012.9 |
| 20260510001839 | 58 | 147 | 0.0 | 0.0 | 0.00 | 0.00 | 0.00 | 88 | 1013.2 |
| 20260510001340 | 59 | 281 | 0.0 | 0.0 | 0.00 | 0.00 | 0.00 | 88 | 1012.9 |
| 20260510000839 | 59 | 62 | 0.0 | 1.0 | 0.00 | 0.00 | 0.00 | 87 | 1012.9 |
| 20260510000241 | 59 | 62 | 0.0 | 0.0 | 0.00 | 0.00 | 0.00 | 87 | 1012.9 |
| 20260509235339 | 60 | 304 | 0.0 | 1.0 | 0.00 | 0.00 | 0.00 | 86 | 1012.9 |
| 20260509234839 | 60 | 117 | 0.0 | 0.0 | 0.00 | 0.00 | 0.00 | 86 | 1012.9 |
| 20260509234339 | 60 | 55 | 0.0 | 0.0 | 0.00 | 0.00 | 0.00 | 86 | 1012.9 |
| 20260509233839 | 61 | 242 | 0.0 | 0.0 | 0.00 | 0.00 | 0.00 | 85 | 1012.9 |
| 20260509233339 | 62 | 50 | 0.0 | 0.0 | 0.00 | 0.00 | 0.00 | 84 | 1012.5 |
| 20260509232839 | 62 | 343 | 0.0 | 0.0 | 0.00 | 0.00 | 0.00 | 83 | 1012.5 |
| 20260509232339 | 62 | 164 | 0.0 | 0.0 | 0.00 | 0.00 | 0.00 | 83 | 1012.9 |
| 20260509231840 | 62 | 315 | 0.0 | 0.0 | 0.00 | 0.00 | 0.00 | 82 | 1012.5 |
| 20260509231339 | 62 | 55 | 0.0 | 1.0 | 0.00 | 0.00 | 0.00 | 81 | 1012.5 |
| 20260509230841 | 63 | 269 | 0.0 | 0.0 | 0.00 | 0.00 | 0.00 | 81 | 1012.9 |